createdAt,value
2018-04-09T00:01:11.863Z,37.53
2018-04-09T00:03:41.363Z,36.20
2018-04-09T00:06:10.479Z,39.08
2018-04-09T00:08:39.606Z,35.92
2018-04-09T00:11:09.064Z,37.65
2018-04-09T00:13:38.223Z,38.38
2018-04-09T00:16:07.342Z,37.45
2018-04-09T00:18:36.481Z,38.67
2018-04-09T00:21:05.599Z,35.05
2018-04-09T00:23:34.715Z,38.40
2018-04-09T00:26:03.842Z,36.40
2018-04-09T00:28:32.971Z,38.83
2018-04-09T00:31:02.108Z,36.80
2018-04-09T00:33:31.387Z,37.03
2018-04-09T00:36:00.559Z,36.97
2018-04-09T00:38:29.671Z,38.35
2018-04-09T00:40:59.122Z,34.83
2018-04-09T00:43:28.250Z,35.05
2018-04-09T00:45:57.362Z,36.03
2018-04-09T00:48:26.506Z,37.10
2018-04-09T00:50:55.631Z,34.80
2018-04-09T00:53:30.827Z,38.13
2018-04-09T00:55:59.963Z,35.92
2018-04-09T00:58:29.122Z,37.22
2018-04-09T01:00:58.256Z,37.58
2018-04-09T01:03:27.456Z,38.50
2018-04-09T01:05:56.576Z,38.35
2018-04-09T01:08:26.136Z,37.80
2018-04-09T01:10:55.271Z,37.85
2018-04-09T01:13:24.394Z,37.38
2018-04-09T01:15:53.526Z,36.70
2018-04-09T01:18:22.749Z,38.10
2018-04-09T01:20:51.866Z,35.75
2018-04-09T01:23:21.004Z,39.53
2018-04-09T01:25:50.126Z,41.10
2018-04-09T01:28:19.257Z,41.05
2018-04-09T01:30:48.374Z,37.88
2018-04-09T01:33:17.505Z,40.12
2018-04-09T01:35:46.638Z,39.70
2018-04-09T01:38:16.090Z,38.20
2018-04-09T01:40:45.212Z,41.17
2018-04-09T01:43:14.335Z,42.15
2018-04-09T01:45:43.738Z,39.63
2018-04-09T01:48:12.862Z,41.40
2018-04-09T01:50:42.000Z,41.40
2018-04-09T01:53:11.140Z,40.80
2018-04-09T01:55:40.267Z,39.70
2018-04-09T01:58:09.415Z,43.85
2018-04-09T02:00:38.829Z,42.13
2018-04-09T02:03:07.955Z,39.00
2018-04-09T02:05:37.068Z,39.05
2018-04-09T02:08:06.226Z,39.47
2018-04-09T02:10:35.351Z,38.95
2018-04-09T02:13:04.470Z,39.92
2018-04-09T02:15:33.614Z,39.25
2018-04-09T02:18:02.730Z,39.67
2018-04-09T02:20:31.851Z,39.03
2018-04-09T02:23:01.323Z,40.00
2018-04-09T02:25:30.559Z,38.22
2018-04-09T02:27:59.756Z,39.42
2018-04-09T02:30:28.907Z,38.70
2018-04-09T02:32:58.031Z,37.90
2018-04-09T02:35:27.171Z,39.28
2018-04-09T02:37:56.636Z,39.30
2018-04-09T02:40:25.951Z,38.25
2018-04-09T02:42:55.080Z,36.58
2018-04-09T02:45:24.519Z,37.72
2018-04-09T02:47:53.749Z,37.17
2018-04-09T02:50:22.869Z,36.17
2018-04-09T02:52:52.003Z,37.97
2018-04-09T02:55:21.135Z,37.10
2018-04-09T02:57:50.265Z,37.47
2018-04-09T03:00:19.810Z,37.03
2018-04-09T03:02:49.038Z,36.33
2018-04-09T03:05:18.185Z,37.88
2018-04-09T03:07:47.723Z,37.30
2018-04-09T03:10:16.856Z,37.28
2018-04-09T03:12:45.963Z,37.78
2018-04-09T03:15:15.376Z,38.20
2018-04-09T03:17:44.498Z,38.08
2018-04-09T03:20:13.622Z,38.75
2018-04-09T03:22:42.760Z,39.90
2018-04-09T03:25:11.883Z,37.97
2018-04-09T03:27:41.021Z,37.60
2018-04-09T03:30:10.499Z,37.75
2018-04-09T03:32:39.610Z,37.75
2018-04-09T03:35:08.727Z,34.90
2018-04-09T03:37:37.872Z,36.97
2018-04-09T03:40:06.994Z,34.80
2018-04-09T03:42:36.117Z,36.75
2018-04-09T03:45:05.571Z,34.08
2018-04-09T03:47:34.792Z,36.08
2018-04-09T03:50:03.902Z,33.85
2018-04-09T03:52:33.620Z,35.28
2018-04-09T03:55:02.707Z,34.97
2018-04-09T03:57:31.837Z,35.63
2018-04-09T04:00:01.399Z,32.25
2018-04-09T04:02:30.509Z,33.85
2018-04-09T04:04:59.651Z,34.60
2018-04-09T04:07:29.055Z,34.00
2018-04-09T04:09:58.285Z,33.80
2018-04-09T04:12:27.395Z,33.33
2018-04-09T04:14:56.885Z,32.50
2018-04-09T04:17:31.924Z,33.67
2018-04-09T04:20:07.330Z,35.08
2018-04-09T04:22:36.468Z,32.42
2018-04-09T04:25:05.608Z,34.53
2018-04-09T04:27:35.028Z,33.03
2018-04-09T04:30:04.135Z,35.70
2018-04-09T04:32:33.275Z,32.33
2018-04-09T04:35:02.694Z,34.78
2018-04-09T04:37:31.834Z,36.80
2018-04-09T04:40:01.022Z,38.20
2018-04-09T04:42:30.418Z,36.30
2018-04-09T04:44:59.552Z,38.70
2018-04-09T04:47:28.741Z,41.13
2018-04-09T04:49:58.224Z,39.00
2018-04-09T04:52:27.459Z,39.45
2018-04-09T04:54:56.599Z,39.35
2018-04-09T04:57:26.027Z,38.75
2018-04-09T04:59:55.144Z,40.28
2018-04-09T05:02:24.263Z,39.67
2018-04-09T05:04:53.660Z,34.25
2018-04-09T05:07:22.832Z,39.78
2018-04-09T05:09:52.160Z,38.67
2018-04-09T05:12:21.310Z,37.20
2018-04-09T05:14:50.457Z,39.05
2018-04-09T05:17:19.591Z,36.95
2018-04-09T05:19:48.825Z,39.25
2018-04-09T05:22:17.974Z,38.20
2018-04-09T05:24:47.091Z,36.30
2018-04-09T05:27:16.236Z,33.95
2018-04-09T05:29:45.356Z,35.10
2018-04-09T05:32:14.567Z,35.13
2018-04-09T05:34:43.969Z,35.92
2018-04-09T05:37:13.107Z,33.85
2018-04-09T05:39:42.300Z,34.13
2018-04-09T05:42:11.779Z,35.30
2018-04-09T05:44:40.946Z,35.90
2018-04-09T05:47:10.065Z,36.60
2018-04-09T05:49:39.290Z,35.63
2018-04-09T05:52:08.412Z,32.97
2018-04-09T05:54:37.570Z,37.58
2018-04-09T05:57:07.061Z,34.45
2018-04-09T05:59:36.202Z,32.92
2018-04-09T06:02:05.315Z,31.95
2018-04-09T06:04:34.522Z,34.55
2018-04-09T06:07:03.655Z,34.67
2018-04-09T06:09:32.771Z,33.58
2018-04-09T06:12:02.719Z,32.08
2018-04-09T06:14:31.819Z,33.65
2018-04-09T06:17:00.979Z,30.95
2018-04-09T06:19:30.398Z,30.90
2018-04-09T06:21:59.544Z,32.47
2018-04-09T06:24:28.695Z,32.13
2018-04-09T06:26:58.081Z,34.58
2018-04-09T06:29:27.234Z,32.40
2018-04-09T06:31:56.375Z,34.97
2018-04-09T06:34:25.487Z,33.60
2018-04-09T06:36:54.616Z,35.03
2018-04-09T06:39:23.756Z,33.97
2018-04-09T06:41:52.907Z,34.80
2018-04-09T06:44:22.032Z,32.88
2018-04-09T06:46:51.831Z,35.67
2018-04-09T06:49:21.023Z,35.80
2018-04-09T06:51:50.155Z,30.50
2018-04-09T06:54:19.348Z,33.17
2018-04-09T06:56:48.744Z,33.25
2018-04-09T06:59:17.858Z,31.87
2018-04-09T07:01:46.993Z,35.60
2018-04-09T07:04:16.411Z,34.45
2018-04-09T07:06:45.553Z,31.98
2018-04-09T07:09:14.684Z,34.00
2018-04-09T07:11:43.812Z,34.70
2018-04-09T07:14:12.942Z,32.28
2018-04-09T07:16:42.080Z,33.33
2018-04-09T07:19:11.598Z,34.67
2018-04-09T07:21:40.752Z,35.25
2018-04-09T07:24:09.885Z,35.05
2018-04-09T07:26:39.400Z,34.55
2018-04-09T07:29:08.525Z,32.95
2018-04-09T07:31:37.725Z,36.10
2018-04-09T07:34:07.189Z,37.67
2018-04-09T07:36:36.308Z,34.88
2018-04-09T07:39:05.440Z,35.97
2018-04-09T07:41:34.581Z,35.22
2018-04-09T07:44:03.706Z,33.72
2018-04-09T07:46:32.931Z,34.08
2018-04-09T07:49:02.090Z,34.65
2018-04-09T07:51:31.235Z,33.28
2018-04-09T07:54:00.361Z,31.60
2018-04-09T07:56:29.490Z,31.15
2018-04-09T08:11:55.297Z,36.33
2018-04-09T08:14:24.432Z,32.42
2018-04-09T08:16:53.586Z,31.87
2018-04-09T08:19:23.050Z,31.83
2018-04-09T08:21:52.167Z,31.58
2018-04-09T08:24:21.297Z,32.05
2018-04-09T08:26:50.751Z,30.70
2018-04-09T08:29:19.871Z,33.80
2018-04-09T08:31:48.991Z,31.90
2018-04-09T08:34:18.481Z,33.80
2018-04-09T08:36:47.631Z,32.28
2018-04-09T08:39:16.780Z,31.25
2018-04-09T08:41:45.919Z,28.50
2018-04-09T08:44:15.047Z,31.15
2018-04-09T08:46:44.171Z,31.35
2018-04-09T08:49:13.627Z,32.30
2018-04-09T08:51:42.743Z,30.40
2018-04-09T08:54:11.887Z,29.55
2018-04-09T08:56:41.031Z,31.55
2018-04-09T08:59:10.162Z,30.80
2018-04-09T09:01:39.312Z,30.98
2018-04-09T09:04:08.441Z,30.25
2018-04-09T09:06:37.577Z,30.08
2018-04-09T09:09:06.704Z,29.80
2018-04-09T09:11:36.211Z,30.83
2018-04-09T09:14:05.431Z,30.65
2018-04-09T09:16:34.558Z,28.40
2018-04-09T09:19:04.037Z,29.95
2018-04-09T09:21:33.147Z,30.65
2018-04-09T09:24:02.291Z,28.65
2018-04-09T09:26:31.451Z,29.60
2018-04-09T09:29:00.580Z,30.15
2018-04-09T09:31:29.855Z,31.30
2018-04-09T09:33:59.531Z,30.55
2018-04-09T09:36:28.650Z,30.48
2018-04-09T09:38:57.780Z,27.70
2018-04-09T09:41:27.222Z,30.85
2018-04-09T09:43:56.415Z,29.23
2018-04-09T09:46:25.533Z,30.83
2018-04-09T09:48:54.706Z,26.83
2018-04-09T09:51:23.826Z,26.95
2018-04-09T09:53:52.975Z,24.55
2018-04-09T09:56:22.471Z,24.63
2018-04-09T09:58:51.607Z,27.08
2018-04-09T10:01:20.749Z,27.95
2018-04-09T10:03:50.283Z,27.35
2018-04-09T10:06:19.430Z,27.80
2018-04-09T10:08:48.568Z,27.70
2018-04-09T10:11:18.067Z,28.10
2018-04-09T10:13:47.841Z,27.05
2018-04-09T10:16:16.973Z,29.00
2018-04-09T10:18:46.472Z,27.62
2018-04-09T10:21:15.595Z,27.27
2018-04-09T10:23:44.724Z,29.40
2018-04-09T10:26:13.874Z,27.02
2018-04-09T10:28:43.034Z,26.60
2018-04-09T10:31:12.164Z,28.98
2018-04-09T10:33:41.671Z,29.00
2018-04-09T10:36:10.804Z,29.83
2018-04-09T10:38:39.928Z,29.97
2018-04-09T10:41:09.463Z,32.60
2018-04-09T10:43:38.688Z,31.07
2018-04-09T10:46:07.800Z,27.20
2018-04-09T10:48:37.267Z,28.00
2018-04-09T10:51:06.407Z,26.40
2018-04-09T10:53:35.566Z,25.40
2018-04-09T10:56:04.712Z,27.70
2018-04-09T10:58:33.836Z,29.47
2018-04-09T11:01:02.969Z,28.10
2018-04-09T11:03:32.444Z,27.40
2018-04-09T11:06:01.673Z,29.20
2018-04-09T11:08:30.806Z,28.90
2018-04-09T11:11:00.234Z,30.20
2018-04-09T11:13:29.362Z,29.80
2018-04-09T11:15:58.478Z,29.27
2018-04-09T11:18:27.927Z,29.10
2018-04-09T11:20:57.053Z,28.33
2018-04-09T11:23:26.181Z,28.43
2018-04-09T11:25:55.574Z,27.10
2018-04-09T11:28:24.755Z,29.50
2018-04-09T11:30:53.900Z,26.50
2018-04-09T11:33:23.419Z,29.20
2018-04-09T11:35:52.544Z,27.43
2018-04-09T11:38:21.679Z,27.43
2018-04-09T11:40:51.223Z,26.43
2018-04-09T11:43:20.372Z,27.40
2018-04-09T11:45:49.497Z,27.47
2018-04-09T11:48:18.952Z,28.37
2018-04-09T11:50:48.074Z,26.70
2018-04-09T11:53:17.205Z,29.00
2018-04-09T11:55:46.624Z,28.43
2018-04-09T11:58:15.805Z,28.30
2018-04-09T12:00:44.941Z,28.60
2018-04-09T12:03:14.372Z,35.13
2018-04-09T12:05:43.486Z,36.63
2018-04-09T12:08:12.733Z,32.47
2018-04-09T12:10:42.122Z,28.00
2018-04-09T12:13:11.435Z,28.70
2018-04-09T12:15:40.592Z,30.40
2018-04-09T12:18:10.106Z,34.77
2018-04-09T12:20:39.337Z,34.87
2018-04-09T12:23:08.455Z,30.07
2018-04-09T12:25:37.901Z,29.53
2018-04-09T12:28:07.133Z,26.97
2018-04-09T12:30:36.277Z,27.57
2018-04-09T12:33:05.833Z,28.73
2018-04-09T12:35:34.979Z,25.40
2018-04-09T12:38:04.097Z,27.47
2018-04-09T12:40:33.485Z,27.40
2018-04-09T12:43:02.613Z,28.50
2018-04-09T12:45:32.649Z,27.20
2018-04-09T12:48:01.789Z,26.47
2018-04-09T12:50:30.916Z,26.83
2018-04-09T12:53:00.034Z,27.53
2018-04-09T12:55:29.185Z,30.00
2018-04-09T12:57:58.310Z,30.33
2018-04-09T13:00:27.494Z,30.93
2018-04-09T13:02:56.625Z,28.10
2018-04-09T13:05:25.784Z,30.50
2018-04-09T13:07:55.004Z,29.80
2018-04-09T13:10:24.150Z,28.63
2018-04-09T13:12:53.278Z,28.30
2018-04-09T13:15:22.494Z,25.60
2018-04-09T13:17:51.623Z,27.17
2018-04-09T13:20:20.741Z,28.27
2018-04-09T13:22:49.864Z,32.13
2018-04-09T13:25:19.349Z,28.50
2018-04-09T13:27:49.380Z,29.60
2018-04-09T13:30:18.541Z,28.80
2018-04-09T13:32:47.708Z,28.13
2018-04-09T13:35:16.838Z,26.83
2018-04-09T13:37:45.966Z,27.50
2018-04-09T13:40:15.109Z,26.80
2018-04-09T13:42:44.252Z,27.20
2018-04-09T13:45:13.405Z,25.90
2018-04-09T13:47:42.566Z,26.27
2018-04-09T13:50:11.685Z,26.67
2018-04-09T13:52:40.837Z,26.27
2018-04-09T13:55:09.976Z,26.23
2018-04-09T13:57:39.117Z,26.73
2018-04-09T14:00:08.246Z,24.83
2018-04-09T14:02:37.394Z,26.40
2018-04-09T14:05:06.540Z,26.53
2018-04-09T14:07:35.667Z,25.93
2018-04-09T14:10:05.104Z,26.77
2018-04-09T14:12:34.237Z,25.10
2018-04-09T14:15:03.365Z,26.17
2018-04-09T14:17:32.807Z,25.27
2018-04-09T14:20:01.958Z,26.07
2018-04-09T14:22:31.141Z,25.60
2018-04-09T14:25:00.293Z,25.00
2018-04-09T14:27:29.426Z,25.00
2018-04-09T14:29:58.573Z,22.58
2018-04-09T14:32:28.077Z,24.75
2018-04-09T14:34:57.325Z,25.03
2018-04-09T14:37:26.469Z,24.75
2018-04-09T14:39:55.637Z,23.83
2018-04-09T14:42:24.784Z,24.67
2018-04-09T14:44:54.017Z,25.17
2018-04-09T14:47:23.442Z,25.40
2018-04-09T14:49:52.591Z,24.65
2018-04-09T14:52:22.126Z,25.30
2018-04-09T14:54:51.615Z,24.50
2018-04-09T14:57:21.138Z,26.73
2018-04-09T14:59:50.737Z,25.65
2018-04-09T15:02:20.199Z,26.50
2018-04-09T15:04:49.711Z,25.08
2018-04-09T15:07:19.353Z,24.90
2018-04-09T15:09:49.042Z,24.58
2018-04-09T15:12:18.518Z,25.03
2018-04-09T15:14:49.926Z,25.37
2018-04-09T15:17:19.490Z,25.70
2018-04-09T15:19:49.694Z,27.23
2018-04-09T15:22:19.229Z,24.58
2018-04-09T15:24:48.372Z,24.77
2018-04-09T15:27:17.503Z,24.23
2018-04-09T15:29:46.675Z,24.33
2018-04-09T15:32:15.842Z,24.70
2018-04-09T15:34:44.997Z,25.40
2018-04-09T15:37:14.168Z,24.50
2018-04-09T15:39:43.320Z,23.70
2018-04-09T15:42:12.455Z,23.92
2018-04-09T15:44:42.051Z,23.92
2018-04-09T15:47:11.191Z,24.15
2018-04-09T15:49:40.328Z,24.65
2018-04-09T15:52:09.466Z,24.05
2018-04-09T15:54:38.628Z,23.98
2018-04-09T15:57:07.801Z,23.90
2018-04-09T15:59:37.307Z,23.98
2018-04-09T16:02:06.503Z,23.33
2018-04-09T16:04:35.649Z,22.40
2018-04-09T16:07:04.806Z,23.25
2018-04-09T16:09:33.942Z,24.45
2018-04-09T16:12:03.072Z,23.40
2018-04-09T16:14:32.241Z,24.05
2018-04-09T16:17:01.373Z,23.55
2018-04-09T16:19:30.515Z,22.33
2018-04-09T16:21:59.660Z,22.40
2018-04-09T16:24:28.805Z,21.75
2018-04-09T16:26:57.944Z,22.90
2018-04-09T16:29:27.115Z,21.85
2018-04-09T16:31:56.241Z,21.95
2018-04-09T16:34:25.371Z,22.87
2018-04-09T16:36:54.504Z,21.80
2018-04-09T16:39:23.647Z,21.53
2018-04-09T16:41:52.781Z,23.10
2018-04-09T16:44:22.227Z,20.80
2018-04-09T16:46:51.365Z,20.65
2018-04-09T16:49:20.522Z,21.10
2018-04-09T16:51:49.661Z,21.30
2018-04-09T16:54:18.806Z,21.05
2018-04-09T16:56:47.940Z,22.48
2018-04-09T16:59:17.398Z,21.00
2018-04-09T17:01:46.521Z,21.05
2018-04-09T17:04:15.655Z,21.73
2018-04-09T17:06:44.797Z,20.98
2018-04-09T17:09:13.993Z,20.95
2018-04-09T17:11:43.079Z,21.23
2018-04-09T17:14:12.235Z,20.98
2018-04-09T17:16:41.371Z,21.67
2018-04-09T17:19:10.518Z,20.73
2018-04-09T17:21:39.669Z,20.12
2018-04-09T17:24:08.860Z,22.17
2018-04-09T17:26:38.001Z,20.12
2018-04-09T17:29:07.496Z,20.73
2018-04-09T17:31:36.626Z,21.58
2018-04-09T17:34:05.776Z,22.08
2018-04-09T17:36:34.928Z,20.98
2018-04-09T17:39:04.064Z,20.83
2018-04-09T17:41:33.271Z,21.90
2018-04-09T17:44:02.525Z,21.92
2018-04-09T17:46:31.653Z,21.85
2018-04-09T17:49:00.810Z,22.15
2018-04-09T17:51:29.985Z,21.15
2018-04-09T17:53:59.128Z,21.92
2018-04-09T17:56:28.253Z,22.80
2018-04-09T17:58:57.386Z,22.17
2018-04-09T18:01:26.650Z,22.33
2018-04-09T18:03:55.782Z,21.42
2018-04-09T18:06:24.966Z,20.60
2018-04-09T18:08:54.082Z,23.67
2018-04-09T18:11:23.206Z,23.23
2018-04-09T18:13:52.352Z,21.48
2018-04-09T18:16:21.512Z,22.27
2018-04-09T18:18:50.650Z,22.55
2018-04-09T18:21:19.794Z,23.45
2018-04-09T18:23:48.945Z,21.05
2018-04-09T18:26:18.075Z,21.27
2018-04-09T18:28:47.237Z,21.60
2018-04-09T18:31:16.362Z,22.70
2018-04-09T18:33:45.489Z,21.80
2018-04-09T18:36:14.942Z,22.00
2018-04-09T18:38:44.089Z,23.33
2018-04-09T18:41:13.213Z,20.83
2018-04-09T18:43:42.768Z,21.23
2018-04-09T18:46:11.917Z,21.80
2018-04-09T18:48:41.045Z,21.62
2018-04-09T18:51:10.390Z,23.83
2018-04-09T18:53:39.517Z,22.48
2018-04-09T18:56:08.659Z,22.75
2018-04-09T18:58:38.156Z,21.95
2018-04-09T19:01:07.326Z,21.20
2018-04-09T19:03:36.453Z,21.75
2018-04-09T19:06:05.605Z,23.42
2018-04-09T19:08:34.743Z,20.48
2018-04-09T19:11:03.869Z,23.70
2018-04-09T19:13:33.006Z,23.52
2018-04-09T19:16:02.133Z,23.95
2018-04-09T19:18:31.268Z,22.25
2018-04-09T19:21:00.427Z,21.35
2018-04-09T19:23:29.561Z,21.92
2018-04-09T19:25:58.700Z,22.35
2018-04-09T19:28:27.940Z,22.92
2018-04-09T19:30:57.062Z,22.52
2018-04-09T19:33:26.188Z,22.33
2018-04-09T19:36:01.062Z,23.02
2018-04-09T19:38:35.813Z,23.15
2018-04-09T19:41:04.952Z,22.27
2018-04-09T19:43:34.091Z,23.60
2018-04-09T19:46:03.233Z,24.60
2018-04-09T19:48:32.365Z,22.42
2018-04-09T19:51:01.507Z,21.83
2018-04-09T19:53:30.622Z,23.77
2018-04-09T19:55:59.759Z,23.60
2018-04-09T19:58:28.885Z,21.80
2018-04-09T20:00:58.068Z,22.98
2018-04-09T20:03:27.207Z,23.60
2018-04-09T20:05:56.321Z,21.85
2018-04-09T20:08:25.454Z,23.40
2018-04-09T20:10:54.624Z,22.20
2018-04-09T20:13:23.762Z,23.75
2018-04-09T20:15:52.884Z,24.50
2018-04-09T20:18:22.045Z,23.08
2018-04-09T20:20:51.331Z,23.85
2018-04-09T20:23:20.472Z,24.58
2018-04-09T20:25:49.879Z,22.20
2018-04-09T20:28:18.992Z,23.58
2018-04-09T20:30:48.120Z,21.65
2018-04-09T20:33:17.280Z,21.48
2018-04-09T20:35:46.511Z,23.40
2018-04-09T20:38:15.648Z,20.98
2018-04-09T20:40:44.804Z,22.20
2018-04-09T20:43:13.935Z,23.08
2018-04-09T20:45:43.074Z,21.52
2018-04-09T20:48:12.215Z,21.98
2018-04-09T20:50:41.345Z,22.60
2018-04-09T20:53:10.469Z,22.45
2018-04-09T20:55:39.615Z,18.40
2018-04-09T20:58:08.745Z,20.75
2018-04-09T21:00:37.975Z,18.10
2018-04-09T21:03:07.114Z,20.62
2018-04-09T21:05:36.266Z,21.08
2018-04-09T21:08:05.382Z,21.62
2018-04-09T21:10:34.837Z,22.65
2018-04-09T21:13:04.068Z,22.33
2018-04-09T21:15:33.217Z,22.23
2018-04-09T21:18:02.734Z,21.60
2018-04-09T21:20:31.854Z,22.08
2018-04-09T21:23:01.052Z,23.12
2018-04-09T21:25:30.524Z,22.58
2018-04-09T21:27:59.639Z,21.80
2018-04-09T21:30:30.681Z,22.27
2018-04-09T21:32:59.895Z,22.90
2018-04-09T21:35:29.012Z,24.17
2018-04-09T21:37:58.421Z,22.83
2018-04-09T21:40:27.593Z,21.85
2018-04-09T21:42:56.738Z,24.08
2018-04-09T21:45:25.861Z,22.92
2018-04-09T21:47:54.980Z,23.48
2018-04-09T21:50:24.107Z,23.58
2018-04-09T21:52:53.900Z,23.55
2018-04-09T21:55:23.021Z,24.15
2018-04-09T21:57:52.140Z,24.08
2018-04-09T22:00:21.292Z,22.40
2018-04-09T22:02:50.475Z,24.23
2018-04-09T22:05:19.591Z,23.25
2018-04-09T22:07:48.749Z,24.50
2018-04-09T22:10:17.875Z,21.92
2018-04-09T22:12:47.007Z,23.02
2018-04-09T22:15:16.546Z,22.60
2018-04-09T22:17:45.668Z,24.12
2018-04-09T22:20:14.797Z,23.83
2018-04-09T22:22:44.225Z,21.17
2018-04-09T22:25:13.370Z,23.25
2018-04-09T22:27:42.485Z,25.05
2018-04-09T22:30:12.358Z,21.10
2018-04-09T22:32:41.474Z,23.42
2018-04-09T22:35:10.637Z,22.48
2018-04-09T22:37:39.764Z,21.83
2018-04-09T22:40:08.890Z,25.00
2018-04-09T22:42:38.025Z,23.05
2018-04-09T22:45:07.162Z,25.35
2018-04-09T22:47:36.289Z,24.27
2018-04-09T22:50:05.429Z,22.15
2018-04-09T22:52:35.246Z,22.52
2018-04-09T22:55:04.376Z,24.40
2018-04-09T22:57:33.516Z,22.30
2018-04-09T23:00:02.727Z,22.55
2018-04-09T23:02:31.857Z,22.25
2018-04-09T23:05:00.985Z,25.40
2018-04-09T23:07:30.839Z,24.35
2018-04-09T23:09:59.949Z,24.05
2018-04-09T23:12:29.113Z,23.40
2018-04-09T23:14:58.701Z,23.48
2018-04-09T23:17:27.841Z,23.42
2018-04-09T23:19:57.021Z,26.55
2018-04-09T23:22:31.900Z,25.90
2018-04-09T23:25:01.023Z,26.45
2018-04-09T23:27:30.151Z,25.45
2018-04-09T23:29:59.534Z,28.92
2018-04-09T23:32:28.665Z,27.35
2018-04-09T23:34:57.786Z,28.20
2018-04-09T23:37:26.930Z,29.20
2018-04-09T23:39:56.061Z,26.02
2018-04-09T23:42:25.200Z,27.95
2018-04-09T23:44:54.608Z,26.48
2018-04-09T23:47:23.773Z,28.90
2018-04-09T23:49:52.891Z,28.45
2018-04-09T23:52:22.388Z,28.45
2018-04-09T23:54:51.503Z,30.60
2018-04-09T23:57:20.617Z,29.77
2018-04-09T23:59:49.741Z,29.23
